sensor_id;sensor_type;location;lat;lon;timestamp;pressure;altitude;pressure_sealevel;temperature;humidity
21520;BME280;10921;53.614;9.882;2023-04-29T00:00:05;100871.81;;;10.85;89.32
21520;BME280;10921;53.614;9.882;2023-04-29T00:02:32;100864.66;;;10.76;89.25
21520;BME280;10921;53.614;9.882;2023-04-29T00:04:59;100885.34;;;10.84;89.01
21520;BME280;10921;53.614;9.882;2023-04-29T00:07:26;100857.81;;;10.64;88.99
21520;BME280;10921;53.614;9.882;2023-04-29T00:09:52;100878.72;;;10.78;89.21
21520;BME280;10921;53.614;9.882;2023-04-29T00:12:19;100877.31;;;10.74;89.20
21520;BME280;10921;53.614;9.882;2023-04-29T00:14:45;100872.56;;;10.68;89.35
21520;BME280;10921;53.614;9.882;2023-04-29T00:17:12;100887.28;;;10.72;89.31
21520;BME280;10921;53.614;9.882;2023-04-29T00:19:38;100876.91;;;10.69;89.85
21520;BME280;10921;53.614;9.882;2023-04-29T00:22:05;100881.25;;;10.70;89.91
21520;BME280;10921;53.614;9.882;2023-04-29T00:24:31;100882.25;;;10.69;89.95
21520;BME280;10921;53.614;9.882;2023-04-29T00:26:57;100886.56;;;10.70;89.45
21520;BME280;10921;53.614;9.882;2023-04-29T00:29:24;100886.75;;;10.69;89.54
21520;BME280;10921;53.614;9.882;2023-04-29T00:31:51;100888.84;;;10.65;89.49
21520;BME280;10921;53.614;9.882;2023-04-29T00:34:17;100884.34;;;10.66;89.30
21520;BME280;10921;53.614;9.882;2023-04-29T00:36:44;100891.66;;;10.64;89.04
21520;BME280;10921;53.614;9.882;2023-04-29T00:39:10;100897.13;;;10.62;89.36
21520;BME280;10921;53.614;9.882;2023-04-29T00:41:40;100870.03;;;10.38;89.06
21520;BME280;10921;53.614;9.882;2023-04-29T00:44:07;100891.09;;;10.50;88.38
21520;BME280;10921;53.614;9.882;2023-04-29T00:46:35;100909.50;;;10.53;89.01
21520;BME280;10921;53.614;9.882;2023-04-29T00:49:02;100896.41;;;10.41;88.24
21520;BME280;10921;53.614;9.882;2023-04-29T00:51:29;100908.22;;;10.48;88.69
21520;BME280;10921;53.614;9.882;2023-04-29T00:53:56;100907.91;;;10.41;88.56
21520;BME280;10921;53.614;9.882;2023-04-29T00:56:22;100924.50;;;10.45;88.36
21520;BME280;10921;53.614;9.882;2023-04-29T00:58:50;100896.09;;;10.25;88.39
21520;BME280;10921;53.614;9.882;2023-04-29T01:01:18;100876.69;;;10.13;87.61
21520;BME280;10921;53.614;9.882;2023-04-29T01:03:45;100902.72;;;10.20;88.09
21520;BME280;10921;53.614;9.882;2023-04-29T01:12:20;100944.00;;;10.36;89.34
21520;BME280;10921;53.614;9.882;2023-04-29T01:15:20;100939.53;;;10.36;88.21
21520;BME280;10921;53.614;9.882;2023-04-29T01:20:21;100938.34;;;10.19;88.08
21520;BME280;10921;53.614;9.882;2023-04-29T01:22:48;100924.81;;;10.11;88.51
21520;BME280;10921;53.614;9.882;2023-04-29T01:25:15;100947.91;;;10.22;88.22
21520;BME280;10921;53.614;9.882;2023-04-29T01:28:01;100942.56;;;10.22;89.64
21520;BME280;10921;53.614;9.882;2023-04-29T01:33:16;100947.06;;;10.21;89.46
21520;BME280;10921;53.614;9.882;2023-04-29T01:35:52;100956.88;;;10.21;88.92
21520;BME280;10921;53.614;9.882;2023-04-29T01:38:29;100943.56;;;10.21;89.41
21520;BME280;10921;53.614;9.882;2023-04-29T01:41:13;100948.75;;;10.23;89.88
21520;BME280;10921;53.614;9.882;2023-04-29T01:43:42;100952.09;;;10.25;88.66
21520;BME280;10921;53.614;9.882;2023-04-29T01:46:09;100936.19;;;10.13;88.56
21520;BME280;10921;53.614;9.882;2023-04-29T01:48:37;100951.44;;;10.23;88.97
21520;BME280;10921;53.614;9.882;2023-04-29T01:51:04;100962.09;;;10.23;89.02
21520;BME280;10921;53.614;9.882;2023-04-29T01:53:32;100946.84;;;10.13;88.91
21520;BME280;10921;53.614;9.882;2023-04-29T01:55:58;100944.47;;;10.10;88.82
21520;BME280;10921;53.614;9.882;2023-04-29T01:58:25;100914.25;;;9.91;88.77
21520;BME280;10921;53.614;9.882;2023-04-29T02:00:53;100969.09;;;10.23;88.61
21520;BME280;10921;53.614;9.882;2023-04-29T02:03:20;100983.13;;;10.26;88.46
21520;BME280;10921;53.614;9.882;2023-04-29T02:05:47;100990.59;;;10.22;88.57
21520;BME280;10921;53.614;9.882;2023-04-29T02:08:16;100957.63;;;10.02;88.58
21520;BME280;10921;53.614;9.882;2023-04-29T02:10:53;100992.09;;;10.25;89.72
21520;BME280;10921;53.614;9.882;2023-04-29T02:13:20;100995.91;;;10.22;88.87
21520;BME280;10921;53.614;9.882;2023-04-29T02:15:46;100936.09;;;9.84;88.99
21520;BME280;10921;53.614;9.882;2023-04-29T02:18:13;100996.19;;;10.19;88.97
21520;BME280;10921;53.614;9.882;2023-04-29T02:20:40;100997.25;;;10.16;88.82
21520;BME280;10921;53.614;9.882;2023-04-29T02:23:09;100981.38;;;10.05;89.13
21520;BME280;10921;53.614;9.882;2023-04-29T02:25:35;100941.88;;;9.90;88.52
21520;BME280;10921;53.614;9.882;2023-04-29T02:28:02;100999.91;;;10.16;88.74
21520;BME280;10921;53.614;9.882;2023-04-29T02:30:28;101007.56;;;10.21;88.24
21520;BME280;10921;53.614;9.882;2023-04-29T02:32:55;101002.97;;;10.12;88.52
21520;BME280;10921;53.614;9.882;2023-04-29T02:35:22;101017.63;;;10.17;88.64
21520;BME280;10921;53.614;9.882;2023-04-29T02:37:48;101019.44;;;10.17;88.74
21520;BME280;10921;53.614;9.882;2023-04-29T02:40:15;101024.91;;;10.15;89.03
21520;BME280;10921;53.614;9.882;2023-04-29T02:42:41;100998.59;;;10.01;89.14
21520;BME280;10921;53.614;9.882;2023-04-29T02:45:08;101024.06;;;10.15;88.98
21520;BME280;10921;53.614;9.882;2023-04-29T02:47:35;101011.81;;;10.12;88.49
21520;BME280;10921;53.614;9.882;2023-04-29T02:50:02;100998.72;;;10.00;88.50
21520;BME280;10921;53.614;9.882;2023-04-29T02:52:30;101033.88;;;10.14;88.60
21520;BME280;10921;53.614;9.882;2023-04-29T02:54:56;101026.00;;;10.13;88.44
21520;BME280;10921;53.614;9.882;2023-04-29T02:57:23;101026.00;;;10.13;88.48
21520;BME280;10921;53.614;9.882;2023-04-29T02:59:49;101028.81;;;10.11;88.57
21520;BME280;10921;53.614;9.882;2023-04-29T03:02:16;101031.47;;;10.11;88.86
21520;BME280;10921;53.614;9.882;2023-04-29T03:04:43;101026.38;;;9.99;88.65
21520;BME280;10921;53.614;9.882;2023-04-29T03:07:10;100998.25;;;9.85;88.52
21520;BME280;10921;53.614;9.882;2023-04-29T03:09:37;101037.06;;;10.08;88.70
21520;BME280;10921;53.614;9.882;2023-04-29T03:12:03;101039.72;;;10.08;88.72
21520;BME280;10921;53.614;9.882;2023-04-29T03:14:30;101051.53;;;10.06;88.81
21520;BME280;10921;53.614;9.882;2023-04-29T03:16:56;101047.19;;;10.05;89.00
21520;BME280;10921;53.614;9.882;2023-04-29T03:19:23;101038.00;;;9.98;88.97
21520;BME280;10921;53.614;9.882;2023-04-29T03:21:50;101049.25;;;10.01;89.04
21520;BME280;10921;53.614;9.882;2023-04-29T03:24:19;101061.03;;;9.99;89.41
21520;BME280;10921;53.614;9.882;2023-04-29T03:26:45;101068.88;;;10.00;88.30
21520;BME280;10921;53.614;9.882;2023-04-29T03:29:12;101043.09;;;9.80;88.17
21520;BME280;10921;53.614;9.882;2023-04-29T03:31:39;101029.72;;;9.70;88.90
21520;BME280;10921;53.614;9.882;2023-04-29T03:34:05;101062.25;;;9.95;89.05
21520;BME280;10921;53.614;9.882;2023-04-29T03:36:32;101061.56;;;9.93;89.08
21520;BME280;10921;53.614;9.882;2023-04-29T03:38:58;101069.41;;;9.94;88.88
21520;BME280;10921;53.614;9.882;2023-04-29T03:41:25;101074.59;;;9.96;88.79
21520;BME280;10921;53.614;9.882;2023-04-29T03:43:51;101073.03;;;9.93;89.17
21520;BME280;10921;53.614;9.882;2023-04-29T03:46:18;101070.22;;;9.85;89.28
21520;BME280;10921;53.614;9.882;2023-04-29T03:48:44;101075.28;;;9.88;89.50
21520;BME280;10921;53.614;9.882;2023-04-29T03:51:11;101078.38;;;9.93;89.23
21520;BME280;10921;53.614;9.882;2023-04-29T03:53:38;101059.09;;;9.80;89.60
21520;BME280;10921;53.614;9.882;2023-04-29T03:56:05;101078.66;;;9.90;89.46
21520;BME280;10921;53.614;9.882;2023-04-29T03:58:32;101088.34;;;9.91;89.29
21520;BME280;10921;53.614;9.882;2023-04-29T04:00:58;101059.50;;;9.75;89.30
21520;BME280;10921;53.614;9.882;2023-04-29T04:03:25;101106.72;;;9.94;89.48
21520;BME280;10921;53.614;9.882;2023-04-29T04:05:53;101063.28;;;9.73;89.36
21520;BME280;10921;53.614;9.882;2023-04-29T04:08:20;101109.56;;;9.93;89.49
21520;BME280;10921;53.614;9.882;2023-04-29T04:10:46;101115.69;;;9.93;89.53
21520;BME280;10921;53.614;9.882;2023-04-29T04:13:13;101106.72;;;9.94;89.19
21520;BME280;10921;53.614;9.882;2023-04-29T04:15:39;101117.38;;;9.94;89.58
21520;BME280;10921;53.614;9.882;2023-04-29T04:18:07;101123.69;;;9.93;89.58
21520;BME280;10921;53.614;9.882;2023-04-29T04:20:37;101099.06;;;9.80;89.74
21520;BME280;10921;53.614;9.882;2023-04-29T04:23:03;101120.34;;;9.91;89.91
21520;BME280;10921;53.614;9.882;2023-04-29T04:25:30;101127.63;;;9.89;89.99
21520;BME280;10921;53.614;9.882;2023-04-29T04:27:56;101116.38;;;9.85;89.98
21520;BME280;10921;53.614;9.882;2023-04-29T04:30:23;101087.63;;;9.68;89.62
21520;BME280;10921;53.614;9.882;2023-04-29T04:32:49;101119.88;;;9.86;89.41
21520;BME280;10921;53.614;9.882;2023-04-29T04:35:16;101132.69;;;9.92;89.69
21520;BME280;10921;53.614;9.882;2023-04-29T04:37:42;101147.31;;;9.98;89.33
21520;BME280;10921;53.614;9.882;2023-04-29T04:40:09;101140.22;;;9.87;89.71
21520;BME280;10921;53.614;9.882;2023-04-29T04:42:37;101147.56;;;9.95;89.98
21520;BME280;10921;53.614;9.882;2023-04-29T04:45:04;101153.22;;;10.01;89.73
21520;BME280;10921;53.614;9.882;2023-04-29T04:47:30;101116.44;;;9.74;90.09
21520;BME280;10921;53.614;9.882;2023-04-29T04:49:57;101168.38;;;10.01;90.06
21520;BME280;10921;53.614;9.882;2023-04-29T04:52:23;101172.59;;;10.03;89.88
21520;BME280;10921;53.614;9.882;2023-04-29T04:54:50;101169.09;;;10.03;89.26
21520;BME280;10921;53.614;9.882;2023-04-29T04:57:16;101169.47;;;9.98;89.36
21520;BME280;10921;53.614;9.882;2023-04-29T04:59:43;101178.66;;;10.05;89.33
21520;BME280;10921;53.614;9.882;2023-04-29T05:02:09;101192.00;;;10.05;89.76
21520;BME280;10921;53.614;9.882;2023-04-29T05:04:36;101190.16;;;10.06;89.78
21520;BME280;10921;53.614;9.882;2023-04-29T05:07:02;101184.50;;;9.99;89.98
21520;BME280;10921;53.614;9.882;2023-04-29T05:09:29;101195.44;;;10.17;89.63
21520;BME280;10921;53.614;9.882;2023-04-29T05:11:56;101181.63;;;10.12;89.88
21520;BME280;10921;53.614;9.882;2023-04-29T05:14:25;101202.41;;;10.29;89.53
21520;BME280;10921;53.614;9.882;2023-04-29T05:16:51;101168.91;;;10.15;89.37
21520;BME280;10921;53.614;9.882;2023-04-29T05:19:18;101167.06;;;10.16;89.09
21520;BME280;10921;53.614;9.882;2023-04-29T05:21:45;101216.41;;;10.42;88.96
21520;BME280;10921;53.614;9.882;2023-04-29T05:24:11;101216.13;;;10.45;88.31
21520;BME280;10921;53.614;9.882;2023-04-29T05:26:38;101208.13;;;10.45;88.23
21520;BME280;10921;53.614;9.882;2023-04-29T05:29:04;101220.09;;;10.51;87.93
21520;BME280;10921;53.614;9.882;2023-04-29T05:31:31;101214.44;;;10.44;87.08
21520;BME280;10921;53.614;9.882;2023-04-29T05:33:58;101189.97;;;10.39;86.72
21520;BME280;10921;53.614;9.882;2023-04-29T05:36:25;101227.44;;;10.58;86.55
21520;BME280;10921;53.614;9.882;2023-04-29T05:38:53;101229.84;;;10.62;85.60
21520;BME280;10921;53.614;9.882;2023-04-29T05:41:19;101229.72;;;10.63;84.61
21520;BME280;10921;53.614;9.882;2023-04-29T05:43:46;101239.41;;;10.64;84.47
21520;BME280;10921;53.614;9.882;2023-04-29T05:46:13;101229.25;;;10.58;84.39
21520;BME280;10921;53.614;9.882;2023-04-29T05:48:39;101236.63;;;10.66;84.90
21520;BME280;10921;53.614;9.882;2023-04-29T05:51:06;101245.06;;;10.71;84.98
21520;BME280;10921;53.614;9.882;2023-04-29T05:53:32;101241.75;;;10.78;84.38
21520;BME280;10921;53.614;9.882;2023-04-29T05:55:59;101240.38;;;10.84;83.91
21520;BME280;10921;53.614;9.882;2023-04-29T05:58:25;101256.56;;;10.92;83.82
21520;BME280;10921;53.614;9.882;2023-04-29T06:00:51;101250.81;;;10.97;83.43
21520;BME280;10921;53.614;9.882;2023-04-29T06:03:18;101248.19;;;11.06;83.08
21520;BME280;10921;53.614;9.882;2023-04-29T06:05:45;101261.00;;;11.12;81.33
21520;BME280;10921;53.614;9.882;2023-04-29T06:08:12;101265.38;;;11.13;80.78
21520;BME280;10921;53.614;9.882;2023-04-29T06:10:38;101274.53;;;11.20;81.06
21520;BME280;10921;53.614;9.882;2023-04-29T06:13:05;101275.22;;;11.22;79.41
21520;BME280;10921;53.614;9.882;2023-04-29T06:15:31;101265.38;;;11.23;79.45
21520;BME280;10921;53.614;9.882;2023-04-29T06:17:58;101282.88;;;11.37;78.41
21520;BME280;10921;53.614;9.882;2023-04-29T06:20:24;101292.72;;;11.46;77.74
21520;BME280;10921;53.614;9.882;2023-04-29T06:22:51;101293.88;;;11.53;78.40
21520;BME280;10921;53.614;9.882;2023-04-29T06:25:17;101281.50;;;11.52;78.12
21520;BME280;10921;53.614;9.882;2023-04-29T06:27:44;101287.16;;;11.58;77.79
21520;BME280;10921;53.614;9.882;2023-04-29T06:30:10;101273.50;;;11.61;76.91
21520;BME280;10921;53.614;9.882;2023-04-29T06:32:40;101297.06;;;11.77;77.13
21520;BME280;10921;53.614;9.882;2023-04-29T06:35:07;101294.81;;;11.82;76.38
21520;BME280;10921;53.614;9.882;2023-04-29T06:37:34;101271.13;;;11.58;75.00
21520;BME280;10921;53.614;9.882;2023-04-29T06:40:04;101300.03;;;11.84;75.32
21520;BME280;10921;53.614;9.882;2023-04-29T06:42:30;101303.41;;;11.86;75.49
21520;BME280;10921;53.614;9.882;2023-04-29T06:44:57;101310.47;;;11.87;75.51
21520;BME280;10921;53.614;9.882;2023-04-29T06:47:23;101314.69;;;11.89;74.59
21520;BME280;10921;53.614;9.882;2023-04-29T06:49:50;101308.50;;;11.89;74.58
21520;BME280;10921;53.614;9.882;2023-04-29T06:52:18;101325.53;;;11.88;74.63
21520;BME280;10921;53.614;9.882;2023-04-29T06:54:45;101325.38;;;11.89;74.51
21520;BME280;10921;53.614;9.882;2023-04-29T06:57:11;101289.19;;;11.76;74.35
21520;BME280;10921;53.614;9.882;2023-04-29T06:59:38;101332.13;;;11.93;73.68
21520;BME280;10921;53.614;9.882;2023-04-29T07:02:05;101329.91;;;11.98;73.18
21520;BME280;10921;53.614;9.882;2023-04-29T07:04:31;101328.50;;;12.04;73.66
21520;BME280;10921;53.614;9.882;2023-04-29T07:06:58;101327.09;;;12.10;72.39
21520;BME280;10921;53.614;9.882;2023-04-29T07:09:24;101324.44;;;12.19;72.80
21520;BME280;10921;53.614;9.882;2023-04-29T07:11:53;101319.09;;;12.19;72.81
21520;BME280;10921;53.614;9.882;2023-04-29T07:14:20;101331.16;;;12.23;71.15
21520;BME280;10921;53.614;9.882;2023-04-29T07:16:52;101340.91;;;12.44;70.36
21520;BME280;10921;53.614;9.882;2023-04-29T07:19:18;101354.13;;;12.55;70.28
21520;BME280;10921;53.614;9.882;2023-04-29T07:21:45;101345.13;;;12.56;69.06
21520;BME280;10921;53.614;9.882;2023-04-29T07:24:11;101350.44;;;12.75;66.37
21520;BME280;10921;53.614;9.882;2023-04-29T07:26:38;101350.19;;;12.78;64.38
21520;BME280;10921;53.614;9.882;2023-04-29T07:29:04;101341.53;;;12.84;65.38
21520;BME280;10921;53.614;9.882;2023-04-29T07:31:31;101359.56;;;13.01;65.61
21520;BME280;10921;53.614;9.882;2023-04-29T07:34:01;101361.09;;;13.04;63.92
21520;BME280;10921;53.614;9.882;2023-04-29T07:36:28;101323.78;;;12.83;62.84
21520;BME280;10921;53.614;9.882;2023-04-29T07:38:54;101333.47;;;13.03;63.21
21520;BME280;10921;53.614;9.882;2023-04-29T07:41:21;101309.25;;;12.95;62.61
21520;BME280;10921;53.614;9.882;2023-04-29T07:43:48;101369.22;;;13.31;62.47
21520;BME280;10921;53.614;9.882;2023-04-29T07:46:14;101363.63;;;13.25;62.19
21520;BME280;10921;53.614;9.882;2023-04-29T07:48:43;101372.31;;;13.36;62.87
21520;BME280;10921;53.614;9.882;2023-04-29T07:51:14;101381.03;;;13.48;63.60
21520;BME280;10921;53.614;9.882;2023-04-29T07:53:40;101334.94;;;13.35;64.03
21520;BME280;10921;53.614;9.882;2023-04-29T07:56:07;101385.41;;;13.77;62.38
21520;BME280;10921;53.614;9.882;2023-04-29T07:58:34;101351.66;;;13.56;60.54
21520;BME280;10921;53.614;9.882;2023-04-29T08:01:10;101393.13;;;13.89;60.28
21520;BME280;10921;53.614;9.882;2023-04-29T08:03:37;101395.75;;;13.99;59.74
21520;BME280;10921;53.614;9.882;2023-04-29T08:06:07;101408.94;;;14.10;59.32
21520;BME280;10921;53.614;9.882;2023-04-29T08:08:34;101402.16;;;14.16;59.25
21520;BME280;10921;53.614;9.882;2023-04-29T08:11:00;101410.25;;;14.24;60.01
21520;BME280;10921;53.614;9.882;2023-04-29T08:13:27;101412.50;;;14.28;60.23
21520;BME280;10921;53.614;9.882;2023-04-29T08:15:53;101400.78;;;14.29;59.49
21520;BME280;10921;53.614;9.882;2023-04-29T08:18:20;101414.91;;;14.31;58.16
21520;BME280;10921;53.614;9.882;2023-04-29T08:20:47;101418.13;;;14.35;57.96
21520;BME280;10921;53.614;9.882;2023-04-29T08:23:14;101417.47;;;14.23;57.84
21520;BME280;10921;53.614;9.882;2023-04-29T08:25:41;101438.25;;;14.21;57.71
21520;BME280;10921;53.614;9.882;2023-04-29T08:28:09;101422.97;;;14.04;57.96
21520;BME280;10921;53.614;9.882;2023-04-29T08:30:40;101422.78;;;14.15;58.11
21520;BME280;10921;53.614;9.882;2023-04-29T08:33:07;101428.78;;;13.99;59.25
21520;BME280;10921;53.614;9.882;2023-04-29T08:35:34;101439.47;;;14.09;59.44
21520;BME280;10921;53.614;9.882;2023-04-29T08:38:04;101448.22;;;14.11;59.41
21520;BME280;10921;53.614;9.882;2023-04-29T08:40:40;101451.84;;;14.20;59.84
21520;BME280;10921;53.614;9.882;2023-04-29T08:43:09;101449.31;;;14.18;60.11
21520;BME280;10921;53.614;9.882;2023-04-29T08:45:35;101415.22;;;14.01;59.20
21520;BME280;10921;53.614;9.882;2023-04-29T08:48:04;101449.16;;;14.37;59.58
21520;BME280;10921;53.614;9.882;2023-04-29T08:50:36;101461.03;;;14.45;58.83
21520;BME280;10921;53.614;9.882;2023-04-29T08:53:05;101463.78;;;14.53;57.59
21520;BME280;10921;53.614;9.882;2023-04-29T08:55:35;101455.13;;;14.41;56.72
21520;BME280;10921;53.614;9.882;2023-04-29T08:58:02;101453.84;;;14.45;58.07
21520;BME280;10921;53.614;9.882;2023-04-29T09:00:31;101457.28;;;14.55;58.33
21520;BME280;10921;53.614;9.882;2023-04-29T09:02:59;101438.88;;;14.42;58.50
21520;BME280;10921;53.614;9.882;2023-04-29T09:05:27;101449.31;;;14.63;57.19
21520;BME280;10921;53.614;9.882;2023-04-29T09:07:56;101451.22;;;14.71;56.72
21520;BME280;10921;53.614;9.882;2023-04-29T09:10:25;101448.09;;;14.75;56.33
21520;BME280;10921;53.614;9.882;2023-04-29T09:12:55;101450.19;;;14.82;55.97
21520;BME280;10921;53.614;9.882;2023-04-29T09:15:22;101456.50;;;14.98;57.09
21520;BME280;10921;53.614;9.882;2023-04-29T09:17:49;101416.44;;;14.87;56.07
21520;BME280;10921;53.614;9.882;2023-04-29T09:22:49;101463.47;;;15.53;54.66
21520;BME280;10921;53.614;9.882;2023-04-29T09:25:16;101463.16;;;15.81;54.75
21520;BME280;10921;53.614;9.882;2023-04-29T09:27:43;101471.91;;;16.17;54.15
21520;BME280;10921;53.614;9.882;2023-04-29T09:30:09;101428.84;;;16.26;50.37
21520;BME280;10921;53.614;9.882;2023-04-29T09:32:38;101477.31;;;16.84;50.06
21520;BME280;10921;53.614;9.882;2023-04-29T09:37:46;101476.97;;;17.28;49.95
21520;BME280;10921;53.614;9.882;2023-04-29T09:40:30;101472.41;;;17.52;49.93
21520;BME280;10921;53.614;9.882;2023-04-29T09:42:57;101473.59;;;17.66;47.55
21520;BME280;10921;53.614;9.882;2023-04-29T09:45:38;101481.09;;;17.95;47.78
21520;BME280;10921;53.614;9.882;2023-04-29T09:48:05;101473.25;;;18.08;45.58
21520;BME280;10921;53.614;9.882;2023-04-29T09:50:34;101491.59;;;18.21;45.97
21520;BME280;10921;53.614;9.882;2023-04-29T09:53:03;101480.78;;;18.29;45.72
21520;BME280;10921;53.614;9.882;2023-04-29T09:55:30;101482.94;;;18.34;45.64
21520;BME280;10921;53.614;9.882;2023-04-29T09:57:57;101487.63;;;18.40;44.95
21520;BME280;10921;53.614;9.882;2023-04-29T10:00:24;101453.94;;;18.27;44.40
21520;BME280;10921;53.614;9.882;2023-04-29T10:02:54;101486.03;;;18.53;43.77
21520;BME280;10921;53.614;9.882;2023-04-29T10:05:26;101444.16;;;18.26;44.71
21520;BME280;10921;53.614;9.882;2023-04-29T10:07:54;101477.31;;;18.43;44.42
21520;BME280;10921;53.614;9.882;2023-04-29T10:10:22;101474.03;;;18.56;44.84
21520;BME280;10921;53.614;9.882;2023-04-29T10:12:52;101461.59;;;18.47;44.20
21520;BME280;10921;53.614;9.882;2023-04-29T10:15:28;101492.03;;;18.72;45.13
21520;BME280;10921;53.614;9.882;2023-04-29T10:18:08;101468.59;;;18.64;45.13
21520;BME280;10921;53.614;9.882;2023-04-29T10:20:40;101493.50;;;18.82;45.57
21520;BME280;10921;53.614;9.882;2023-04-29T10:23:12;101469.16;;;18.82;44.51
21520;BME280;10921;53.614;9.882;2023-04-29T10:25:41;101501.53;;;19.13;43.21
21520;BME280;10921;53.614;9.882;2023-04-29T10:28:12;101459.34;;;19.04;43.30
21520;BME280;10921;53.614;9.882;2023-04-29T10:30:43;101497.22;;;19.42;43.03
21520;BME280;10921;53.614;9.882;2023-04-29T10:33:12;101500.56;;;19.52;42.76
21520;BME280;10921;53.614;9.882;2023-04-29T10:35:51;101440.56;;;19.25;43.55
21520;BME280;10921;53.614;9.882;2023-04-29T10:38:25;101334.94;;;18.67;42.28
21520;BME280;10921;53.614;9.882;2023-04-29T10:40:55;101516.00;;;19.66;42.79
21520;BME280;10921;53.614;9.882;2023-04-29T10:43:24;101508.03;;;19.64;42.34
21520;BME280;10921;53.614;9.882;2023-04-29T10:46:17;101504.00;;;19.60;41.86
21520;BME280;10921;53.614;9.882;2023-04-29T10:48:48;101428.91;;;18.87;41.03
21520;BME280;10921;53.614;9.882;2023-04-29T10:51:30;101508.88;;;19.50;42.08
21520;BME280;10921;53.614;9.882;2023-04-29T10:54:02;101501.63;;;19.43;41.29
21520;BME280;10921;53.614;9.882;2023-04-29T10:59:04;101497.97;;;19.36;42.23
21520;BME280;10921;53.614;9.882;2023-04-29T11:01:48;101507.34;;;19.48;42.91
21520;BME280;10921;53.614;9.882;2023-04-29T11:04:17;101504.13;;;19.44;42.74
21520;BME280;10921;53.614;9.882;2023-04-29T11:06:55;101505.22;;;19.58;42.69
21520;BME280;10921;53.614;9.882;2023-04-29T11:14:25;101498.53;;;19.69;41.45
21520;BME280;10921;53.614;9.882;2023-04-29T11:16:55;101489.47;;;19.61;42.46
21520;BME280;10921;53.614;9.882;2023-04-29T11:19:25;101507.97;;;19.87;42.16
21520;BME280;10921;53.614;9.882;2023-04-29T11:25:16;101513.28;;;20.25;41.46
21520;BME280;10921;53.614;9.882;2023-04-29T11:27:46;101506.75;;;20.19;39.88
21520;BME280;10921;53.614;9.882;2023-04-29T11:30:14;101495.00;;;20.12;39.74
21520;BME280;10921;53.614;9.882;2023-04-29T11:32:42;101513.94;;;20.27;39.83
21520;BME280;10921;53.614;9.882;2023-04-29T11:35:16;101503.59;;;20.16;39.83
21520;BME280;10921;53.614;9.882;2023-04-29T11:37:45;101514.31;;;20.24;40.06
21520;BME280;10921;53.614;9.882;2023-04-29T11:40:14;101504.31;;;20.39;39.94
21520;BME280;10921;53.614;9.882;2023-04-29T11:42:48;101476.56;;;20.22;40.21
21520;BME280;10921;53.614;9.882;2023-04-29T11:45:18;101520.38;;;20.55;40.31
21520;BME280;10921;53.614;9.882;2023-04-29T11:47:46;101501.47;;;20.47;39.84
21520;BME280;10921;53.614;9.882;2023-04-29T11:50:15;101524.94;;;20.55;40.22
21520;BME280;10921;53.614;9.882;2023-04-29T11:52:45;101505.34;;;20.23;40.03
21520;BME280;10921;53.614;9.882;2023-04-29T11:55:12;101510.47;;;20.03;39.55
21520;BME280;10921;53.614;9.882;2023-04-29T11:57:39;101525.28;;;20.01;40.34
21520;BME280;10921;53.614;9.882;2023-04-29T12:00:10;101519.00;;;20.00;40.41
21520;BME280;10921;53.614;9.882;2023-04-29T12:02:43;101515.34;;;20.08;40.53
21520;BME280;10921;53.614;9.882;2023-04-29T12:05:11;101518.16;;;20.29;41.06
21520;BME280;10921;53.614;9.882;2023-04-29T12:07:39;101525.78;;;20.55;39.91
21520;BME280;10921;53.614;9.882;2023-04-29T12:10:09;101532.72;;;20.79;38.47
21520;BME280;10921;53.614;9.882;2023-04-29T12:12:38;101532.25;;;20.90;38.10
21520;BME280;10921;53.614;9.882;2023-04-29T12:15:07;101527.25;;;20.94;38.06
21520;BME280;10921;53.614;9.882;2023-04-29T12:17:36;101538.28;;;21.07;38.72
21520;BME280;10921;53.614;9.882;2023-04-29T12:20:03;101519.13;;;20.94;38.96
21520;BME280;10921;53.614;9.882;2023-04-29T12:22:30;101543.75;;;20.92;38.87
21520;BME280;10921;53.614;9.882;2023-04-29T12:24:57;101535.53;;;20.86;38.07
21520;BME280;10921;53.614;9.882;2023-04-29T12:27:24;101540.31;;;20.84;37.66
21520;BME280;10921;53.614;9.882;2023-04-29T12:29:51;101549.84;;;20.80;38.99
21520;BME280;10921;53.614;9.882;2023-04-29T12:32:22;101527.09;;;20.59;40.62
21520;BME280;10921;53.614;9.882;2023-04-29T12:34:52;101552.53;;;20.58;41.25
21520;BME280;10921;53.614;9.882;2023-04-29T12:37:20;101533.66;;;20.50;41.23
21520;BME280;10921;53.614;9.882;2023-04-29T12:39:49;101535.34;;;20.36;41.20
21520;BME280;10921;53.614;9.882;2023-04-29T12:42:15;101541.28;;;20.32;41.51
21520;BME280;10921;53.614;9.882;2023-04-29T12:44:46;101551.31;;;20.31;41.18
21520;BME280;10921;53.614;9.882;2023-04-29T12:47:14;101550.00;;;20.27;41.60
21520;BME280;10921;53.614;9.882;2023-04-29T12:49:46;101530.69;;;20.16;41.50
21520;BME280;10921;53.614;9.882;2023-04-29T12:52:13;101554.22;;;20.30;41.22
21520;BME280;10921;53.614;9.882;2023-04-29T12:54:40;101538.41;;;20.04;40.77
21520;BME280;10921;53.614;9.882;2023-04-29T12:57:10;101513.84;;;19.76;41.26
21520;BME280;10921;53.614;9.882;2023-04-29T12:59:37;101549.84;;;19.99;41.36
21520;BME280;10921;53.614;9.882;2023-04-29T13:02:06;101553.63;;;19.90;41.40
21520;BME280;10921;53.614;9.882;2023-04-29T13:04:32;101572.50;;;19.84;41.22
21520;BME280;10921;53.614;9.882;2023-04-29T13:06:59;101566.97;;;19.77;41.17
21520;BME280;10921;53.614;9.882;2023-04-29T13:09:26;101558.50;;;19.80;40.47
21520;BME280;10921;53.614;9.882;2023-04-29T13:11:53;101578.00;;;19.76;39.61
21520;BME280;10921;53.614;9.882;2023-04-29T13:14:20;101562.03;;;19.81;39.72
21520;BME280;10921;53.614;9.882;2023-04-29T13:16:47;101530.25;;;19.60;39.84
21520;BME280;10921;53.614;9.882;2023-04-29T13:19:13;101564.53;;;19.67;38.51
21520;BME280;10921;53.614;9.882;2023-04-29T13:22:00;101569.19;;;19.74;38.68